createdAt,value
2022-12-15T00:00:28.971Z,-4.80
2022-12-15T00:03:14.996Z,-4.90
2022-12-15T00:06:00.424Z,-5.00
2022-12-15T00:08:46.202Z,-5.00
2022-12-15T00:11:31.628Z,-5.00
2022-12-15T00:14:17.281Z,-4.90
2022-12-15T00:17:04.191Z,-4.80
2022-12-15T00:19:49.700Z,-4.90
2022-12-15T00:22:35.425Z,-5.00
2022-12-15T00:25:21.211Z,-5.00
2022-12-15T00:28:06.722Z,-5.20
2022-12-15T00:30:53.259Z,-5.20
2022-12-15T00:33:43.257Z,-5.10
2022-12-15T00:36:28.929Z,-5.10
2022-12-15T00:39:02.024Z,-5.10
2022-12-15T00:41:32.105Z,-5.20
2022-12-15T00:44:00.367Z,-5.30
2022-12-15T00:46:46.194Z,-5.40
2022-12-15T00:49:29.800Z,-5.50
2022-12-15T00:52:15.850Z,-5.60
2022-12-15T00:55:01.804Z,-5.60
2022-12-15T00:57:47.185Z,-5.60
2022-12-15T01:00:33.576Z,-5.60
2022-12-15T01:03:19.320Z,-5.60
2022-12-15T01:06:06.345Z,-5.70
2022-12-15T01:08:51.860Z,-5.50
2022-12-15T01:14:17.402Z,-5.30
2022-12-15T01:17:02.868Z,-5.30
2022-12-15T01:19:48.515Z,-5.20
2022-12-15T01:22:19.265Z,-5.20
2022-12-15T01:24:47.628Z,-5.20
2022-12-15T01:27:15.901Z,-5.20
2022-12-15T01:29:44.625Z,-5.20
2022-12-15T01:32:14.138Z,-5.20
2022-12-15T01:34:42.486Z,-5.30
2022-12-15T01:37:10.788Z,-5.30
2022-12-15T01:39:57.675Z,-5.30
2022-12-15T01:42:26.036Z,-5.10
2022-12-15T01:44:55.212Z,-5.00
2022-12-15T01:47:26.623Z,-4.90
2022-12-15T01:49:56.133Z,-5.00
2022-12-15T01:52:24.488Z,-5.20
2022-12-15T01:54:57.921Z,-5.20
2022-12-15T01:57:29.735Z,-5.30
2022-12-15T02:00:02.104Z,-5.40
2022-12-15T02:02:36.934Z,-5.20
2022-12-15T02:05:10.032Z,-5.10
2022-12-15T02:07:39.429Z,-5.10
2022-12-15T02:10:12.325Z,-5.20
2022-12-15T02:12:45.410Z,-5.20
2022-12-15T02:15:21.831Z,-5.20
2022-12-15T02:17:58.688Z,-5.30
2022-12-15T02:20:47.552Z,-5.50
2022-12-15T02:23:59.072Z,-5.60
2022-12-15T02:27:12.103Z,-5.60
2022-12-15T02:30:26.567Z,-5.60
2022-12-15T02:33:21.974Z,-5.60
2022-12-15T02:35:57.993Z,-5.60
2022-12-15T02:38:31.582Z,-5.70
2022-12-15T02:41:01.180Z,-5.60
2022-12-15T02:43:31.569Z,-5.50
2022-12-15T02:46:16.764Z,-5.50
2022-12-15T02:48:59.677Z,-5.40
2022-12-15T02:51:41.468Z,-5.30
2022-12-15T02:54:43.730Z,-5.10
2022-12-15T02:57:18.470Z,-5.00
2022-12-15T02:59:55.684Z,-4.90
2022-12-15T03:02:26.666Z,-4.90
2022-12-15T03:04:57.108Z,-4.80
2022-12-15T03:07:27.897Z,-4.90
2022-12-15T03:09:57.663Z,-5.00
2022-12-15T03:12:25.943Z,-5.10
2022-12-15T03:14:54.352Z,-5.20
2022-12-15T03:17:22.814Z,-5.30
2022-12-15T03:19:51.221Z,-5.30
2022-12-15T03:22:20.980Z,-5.20
2022-12-15T03:24:49.499Z,-5.30
2022-12-15T03:27:17.891Z,-5.50
2022-12-15T03:29:46.263Z,-5.60
2022-12-15T03:32:14.744Z,-5.60
2022-12-15T03:34:43.234Z,-5.30
2022-12-15T03:37:11.538Z,-5.30
2022-12-15T03:39:41.354Z,-5.30
2022-12-15T03:42:09.769Z,-5.40
2022-12-15T03:44:38.189Z,-5.40
2022-12-15T03:47:07.557Z,-5.60
2022-12-15T03:49:35.908Z,-5.70
2022-12-15T03:52:04.184Z,-5.70
2022-12-15T03:54:32.560Z,-5.60
2022-12-15T03:57:02.217Z,-5.50
2022-12-15T03:59:31.544Z,-5.30
2022-12-15T04:01:59.926Z,-5.30
2022-12-15T04:04:28.617Z,-5.30
2022-12-15T04:06:57.141Z,-5.30
2022-12-15T04:09:25.618Z,-5.20
2022-12-15T04:11:54.013Z,-5.20
2022-12-15T04:14:23.887Z,-5.20
2022-12-15T04:16:52.551Z,-5.30
2022-12-15T04:19:38.368Z,-5.40
2022-12-15T04:22:06.792Z,-5.40
2022-12-15T04:24:52.650Z,-5.50
2022-12-15T04:27:38.734Z,-5.60
2022-12-15T04:30:27.286Z,-5.60
2022-12-15T04:33:13.696Z,-5.70
2022-12-15T04:36:00.609Z,-5.70
2022-12-15T04:38:50.590Z,-5.70
2022-12-15T04:41:39.727Z,-5.60
2022-12-15T04:44:26.365Z,-5.50
2022-12-15T04:47:13.988Z,-5.40
2022-12-15T04:50:00.586Z,-5.30
2022-12-15T04:52:47.602Z,-5.30
2022-12-15T04:55:34.660Z,-5.30
2022-12-15T04:58:24.709Z,-5.40
2022-12-15T05:01:11.575Z,-5.60
2022-12-15T05:03:58.767Z,-5.60
2022-12-15T05:06:44.621Z,-5.70
2022-12-15T05:09:30.532Z,-5.80
2022-12-15T05:12:16.614Z,-5.90
2022-12-15T05:15:01.994Z,-6.00
2022-12-15T05:17:48.548Z,-6.00
2022-12-15T05:20:35.717Z,-6.10
2022-12-15T05:23:21.244Z,-6.00
2022-12-15T05:26:07.045Z,-5.70
2022-12-15T05:28:52.865Z,-5.50
2022-12-15T05:31:38.756Z,-5.50
2022-12-15T05:34:07.241Z,-5.30
2022-12-15T05:36:36.883Z,-5.00
2022-12-15T05:39:05.446Z,-4.70
2022-12-15T05:41:33.735Z,-4.70
2022-12-15T05:44:02.463Z,-4.70
2022-12-15T05:46:30.890Z,-4.70
2022-12-15T05:48:59.296Z,-4.80
2022-12-15T05:51:27.693Z,-4.80
2022-12-15T05:53:57.364Z,-4.80
2022-12-15T05:56:27.140Z,-4.80
2022-12-15T05:58:56.472Z,-4.90
2022-12-15T06:01:28.915Z,-5.00
2022-12-15T06:03:57.347Z,-5.00
2022-12-15T06:06:26.290Z,-5.10
2022-12-15T06:08:56.089Z,-5.10
2022-12-15T06:11:24.693Z,-5.10
2022-12-15T06:13:54.191Z,-5.00
2022-12-15T06:16:24.416Z,-5.00
2022-12-15T06:18:55.731Z,-5.00
2022-12-15T06:21:25.877Z,-5.00
2022-12-15T06:23:54.713Z,-5.10
2022-12-15T06:26:26.581Z,-5.10
2022-12-15T06:28:57.282Z,-5.10
2022-12-15T06:31:26.977Z,-5.20
2022-12-15T06:34:01.681Z,-5.50
2022-12-15T06:36:31.758Z,-5.60
2022-12-15T06:39:01.058Z,-5.70
2022-12-15T06:41:31.131Z,-5.80
2022-12-15T06:44:00.018Z,-5.80
2022-12-15T06:46:29.967Z,-5.80
2022-12-15T06:48:59.231Z,-5.80
2022-12-15T06:51:28.946Z,-5.80
2022-12-15T06:53:57.236Z,-5.60
2022-12-15T06:56:32.501Z,-5.70
2022-12-15T06:59:05.230Z,-5.60
2022-12-15T07:01:33.904Z,-5.70
2022-12-15T07:04:04.524Z,-5.70
2022-12-15T07:06:36.549Z,-5.40
2022-12-15T07:09:08.359Z,-5.40
2022-12-15T07:11:37.164Z,-5.60
2022-12-15T07:14:06.825Z,-5.80
2022-12-15T07:16:35.222Z,-5.90
2022-12-15T07:19:06.556Z,-5.90
2022-12-15T07:21:34.749Z,-5.60
2022-12-15T07:24:03.608Z,-5.50
2022-12-15T07:26:32.261Z,-5.50
2022-12-15T07:29:00.631Z,-5.30
2022-12-15T07:31:31.995Z,-5.30
2022-12-15T07:34:00.690Z,-5.40
2022-12-15T07:36:28.991Z,-5.50
2022-12-15T07:39:01.909Z,-5.50
2022-12-15T07:41:30.359Z,-5.60
2022-12-15T07:43:59.251Z,-5.70
2022-12-15T07:46:29.225Z,-5.70
2022-12-15T07:48:57.555Z,-5.70
2022-12-15T07:51:26.053Z,-5.60
2022-12-15T07:53:54.462Z,-5.50
2022-12-15T07:56:22.786Z,-5.50
2022-12-15T07:58:51.901Z,-5.50
2022-12-15T08:01:20.387Z,-5.60
2022-12-15T08:03:51.296Z,-5.50
2022-12-15T08:06:19.608Z,-5.50
2022-12-15T08:08:50.582Z,-5.50
2022-12-15T08:11:20.672Z,-5.50
2022-12-15T08:14:02.693Z,-5.60
2022-12-15T08:16:32.143Z,-5.50
2022-12-15T08:19:01.883Z,-5.40
2022-12-15T08:21:31.369Z,-5.30
2022-12-15T08:24:00.905Z,-5.30
2022-12-15T08:26:30.889Z,-5.20
2022-12-15T08:29:32.075Z,-5.10
2022-12-15T08:31:52.524Z,-5.00
2022-12-15T08:34:23.921Z,-4.90
2022-12-15T08:36:52.406Z,-4.90
2022-12-15T08:39:21.666Z,-4.70
2022-12-15T08:41:50.744Z,-4.60
2022-12-15T08:44:19.118Z,-4.50
2022-12-15T08:46:47.357Z,-4.40
2022-12-15T08:49:21.402Z,-4.30
2022-12-15T08:51:52.508Z,-4.20
2022-12-15T08:54:21.732Z,-4.10
2022-12-15T08:56:50.289Z,-4.10
2022-12-15T08:59:19.142Z,-3.90
2022-12-15T09:01:47.863Z,-3.80
2022-12-15T09:04:16.664Z,-3.80
2022-12-15T09:06:46.782Z,-3.70
2022-12-15T09:09:20.936Z,-3.60
2022-12-15T09:11:49.557Z,-3.50
2022-12-15T09:14:21.582Z,-3.40
2022-12-15T09:16:54.229Z,-3.30
2022-12-15T09:19:22.667Z,-3.20
2022-12-15T09:21:50.883Z,-3.10
2022-12-15T09:24:29.186Z,-3.00
2022-12-15T09:27:04.234Z,-2.90
2022-12-15T09:29:32.854Z,-2.90
2022-12-15T09:32:01.275Z,-2.80
2022-12-15T09:34:30.288Z,-2.60
2022-12-15T09:36:58.650Z,-2.50
2022-12-15T09:39:28.481Z,-2.40
2022-12-15T09:42:00.924Z,-2.30
2022-12-15T09:44:31.486Z,-2.10
2022-12-15T09:47:10.034Z,-2.00
2022-12-15T09:49:51.801Z,-1.70
2022-12-15T09:52:23.362Z,-1.50
2022-12-15T09:54:53.310Z,-1.30
2022-12-15T09:57:32.569Z,-1.10
2022-12-15T10:00:12.753Z,-0.90
2022-12-15T10:03:25.955Z,-0.70
2022-12-15T10:06:16.189Z,-0.60
2022-12-15T10:08:50.507Z,-0.40
2022-12-15T10:11:28.446Z,-0.30
2022-12-15T10:14:06.334Z,-0.20
2022-12-15T10:16:41.257Z,-0.10
2022-12-15T10:19:14.720Z,-0.10
2022-12-15T10:21:43.650Z,-0.10
2022-12-15T10:24:44.486Z,-0.10
2022-12-15T10:27:23.804Z,-0.10
2022-12-15T10:30:01.605Z,0.00
2022-12-15T10:32:42.635Z,0.10
2022-12-15T10:35:16.549Z,0.30
2022-12-15T10:37:45.122Z,0.40
2022-12-15T10:40:18.999Z,0.60
2022-12-15T10:42:50.927Z,0.60
2022-12-15T10:45:39.860Z,0.70
2022-12-15T10:48:19.029Z,0.80
2022-12-15T10:50:48.435Z,1.00
2022-12-15T10:53:39.643Z,1.10
2022-12-15T10:56:09.575Z,1.10
2022-12-15T10:58:50.257Z,1.30
2022-12-15T11:01:20.791Z,1.50
2022-12-15T11:03:52.849Z,1.60
2022-12-15T11:06:23.951Z,1.70
2022-12-15T11:08:54.427Z,1.80
2022-12-15T11:11:50.410Z,2.00
2022-12-15T11:14:24.124Z,2.20
2022-12-15T11:16:56.415Z,2.40
2022-12-15T11:19:40.378Z,2.50
2022-12-15T11:22:18.332Z,2.60
2022-12-15T11:24:51.908Z,2.60
2022-12-15T11:27:27.536Z,2.60
2022-12-15T11:30:03.177Z,2.60
2022-12-15T11:32:36.037Z,2.70
2022-12-15T11:35:04.904Z,2.80
2022-12-15T11:37:39.402Z,2.90
2022-12-15T11:40:39.124Z,3.00
2022-12-15T11:43:32.925Z,3.00
2022-12-15T11:46:23.885Z,3.00
2022-12-15T11:49:28.710Z,3.00
2022-12-15T11:52:02.354Z,3.20
2022-12-15T11:54:41.593Z,3.40
2022-12-15T11:57:39.264Z,3.50
2022-12-15T12:00:11.850Z,3.80
2022-12-15T12:03:09.335Z,3.90
2022-12-15T12:05:53.101Z,4.20
2022-12-15T12:08:47.072Z,4.30
2022-12-15T12:11:22.362Z,4.50
2022-12-15T12:14:11.472Z,4.50
2022-12-15T12:16:50.464Z,4.60
2022-12-15T12:19:24.839Z,4.80
2022-12-15T12:22:21.431Z,5.00
2022-12-15T12:24:53.893Z,5.00
2022-12-15T12:27:31.987Z,5.10
2022-12-15T12:30:05.552Z,5.20
2022-12-15T12:32:45.779Z,5.30
2022-12-15T12:35:31.825Z,5.40
2022-12-15T12:38:04.273Z,5.70
2022-12-15T12:40:49.765Z,6.00
2022-12-15T12:43:41.552Z,6.30
2022-12-15T12:46:22.584Z,6.20
2022-12-15T12:48:56.225Z,6.00
2022-12-15T12:52:08.220Z,6.00
2022-12-15T12:54:48.631Z,6.10
2022-12-15T12:57:55.902Z,6.20
2022-12-15T13:01:28.912Z,6.00
2022-12-15T13:04:12.050Z,6.00
2022-12-15T13:07:17.173Z,6.20
2022-12-15T13:10:02.110Z,6.40
2022-12-15T13:12:51.904Z,6.50
2022-12-15T13:15:37.447Z,6.70
2022-12-15T13:20:42.471Z,6.60
2022-12-15T13:23:44.165Z,6.70
2022-12-15T13:29:25.804Z,6.70
2022-12-15T13:36:05.024Z,6.60
2022-12-15T13:43:35.892Z,6.90
2022-12-15T13:46:24.705Z,6.50
2022-12-15T13:48:56.834Z,6.20
2022-12-15T13:51:51.627Z,5.80
2022-12-15T13:54:24.621Z,5.60
2022-12-15T13:57:08.255Z,5.90
2022-12-15T13:59:43.884Z,6.20
2022-12-15T14:02:28.569Z,6.40
2022-12-15T14:08:23.278Z,6.50
2022-12-15T14:11:51.820Z,6.50
2022-12-15T14:14:20.627Z,6.50
2022-12-15T14:16:54.241Z,6.40
2022-12-15T14:19:22.633Z,6.40
2022-12-15T14:21:52.881Z,6.40
2022-12-15T14:24:42.261Z,6.30
2022-12-15T14:27:35.998Z,6.00
2022-12-15T14:30:22.534Z,5.70
2022-12-15T14:35:49.484Z,5.00
2022-12-15T14:38:23.597Z,4.70
2022-12-15T14:40:56.557Z,4.30
2022-12-15T14:43:28.676Z,4.10
2022-12-15T14:46:07.764Z,3.80
2022-12-15T14:48:42.075Z,3.50
2022-12-15T14:51:13.704Z,3.30
2022-12-15T14:53:44.737Z,3.10
2022-12-15T14:59:20.844Z,2.50
2022-12-15T15:01:58.565Z,2.10
2022-12-15T15:03:14.541Z,2.80
2022-12-15T15:04:32.643Z,2.00
2022-12-15T15:07:03.280Z,1.80
2022-12-15T15:09:34.824Z,1.50
2022-12-15T15:12:05.729Z,1.30
2022-12-15T15:14:38.763Z,1.20
2022-12-15T15:17:17.001Z,1.20
2022-12-15T15:19:51.842Z,1.00
2022-12-15T15:22:32.149Z,0.90
2022-12-15T15:25:00.653Z,0.80
2022-12-15T15:27:36.689Z,0.70
2022-12-15T15:30:21.726Z,0.60
2022-12-15T15:32:58.278Z,0.50
2022-12-15T15:35:32.987Z,0.30
2022-12-15T15:38:05.087Z,0.30
2022-12-15T15:40:33.568Z,0.20
2022-12-15T15:43:01.935Z,0.00
2022-12-15T15:45:31.180Z,-0.10
2022-12-15T15:47:59.647Z,-0.20
2022-12-15T15:50:30.948Z,-0.20
2022-12-15T15:53:00.078Z,-0.30
2022-12-15T15:55:37.834Z,-0.40
2022-12-15T15:58:12.413Z,-0.40
2022-12-15T16:00:41.368Z,-0.40
2022-12-15T16:03:11.007Z,-0.40
2022-12-15T16:05:41.879Z,-0.40
2022-12-15T16:08:16.655Z,-0.50
2022-12-15T16:10:48.418Z,-0.70
2022-12-15T16:13:25.520Z,-0.70
2022-12-15T16:15:54.654Z,-0.80
2022-12-15T16:18:23.374Z,-0.80
2022-12-15T16:20:53.664Z,-0.80
2022-12-15T16:23:25.050Z,-0.80
2022-12-15T16:25:55.482Z,-0.90
2022-12-15T16:28:25.715Z,-0.90
2022-12-15T16:30:54.368Z,-0.90
2022-12-15T16:33:23.138Z,-1.00
2022-12-15T16:35:53.221Z,-0.90
2022-12-15T16:38:26.242Z,-0.90
2022-12-15T16:40:55.467Z,-0.90
2022-12-15T16:43:34.529Z,-0.90
2022-12-15T16:46:06.024Z,-0.90
2022-12-15T16:48:34.995Z,-0.90
2022-12-15T16:51:08.121Z,-1.10
2022-12-15T16:53:40.399Z,-1.00
2022-12-15T16:56:14.313Z,-1.10
2022-12-15T16:58:48.494Z,-1.00
2022-12-15T17:01:17.305Z,-1.00
2022-12-15T17:03:45.839Z,-1.10
2022-12-15T17:06:17.615Z,-1.10
2022-12-15T17:08:50.956Z,-1.30
2022-12-15T17:11:21.522Z,-1.40
2022-12-15T17:13:51.477Z,-1.40
2022-12-15T17:16:21.328Z,-1.30
2022-12-15T17:18:50.243Z,-1.30
2022-12-15T17:21:22.243Z,-1.40
2022-12-15T17:23:53.196Z,-1.50
2022-12-15T17:26:29.111Z,-1.70
2022-12-15T17:29:02.371Z,-1.60
2022-12-15T17:31:35.758Z,-1.60
2022-12-15T17:34:24.016Z,-1.50
2022-12-15T17:36:53.953Z,-1.50
2022-12-15T17:39:23.532Z,-1.50
2022-12-15T17:42:01.198Z,-1.50
2022-12-15T17:44:35.606Z,-1.60
2022-12-15T17:47:06.638Z,-1.70
2022-12-15T17:49:37.805Z,-1.90
2022-12-15T17:52:16.913Z,-2.10
2022-12-15T17:54:45.499Z,-2.00
2022-12-15T17:57:14.045Z,-1.60
2022-12-15T17:59:42.869Z,-1.50
2022-12-15T18:02:13.707Z,-1.40
2022-12-15T18:04:42.585Z,-1.20
2022-12-15T18:07:18.168Z,-1.10
2022-12-15T18:09:46.761Z,-1.10
2022-12-15T18:12:19.935Z,-1.00
2022-12-15T18:14:48.325Z,-1.00
2022-12-15T18:17:16.817Z,-0.90
2022-12-15T18:19:45.244Z,-0.80
2022-12-15T18:22:18.562Z,-0.80
2022-12-15T18:24:47.418Z,-0.60
2022-12-15T18:27:21.942Z,-0.50
2022-12-15T18:29:51.353Z,-0.20
2022-12-15T18:32:21.557Z,-0.10
2022-12-15T18:34:50.569Z,0.00
2022-12-15T18:37:22.976Z,0.00
2022-12-15T18:39:52.390Z,0.00
2022-12-15T18:42:23.257Z,-0.10
2022-12-15T18:44:53.625Z,-0.20
2022-12-15T18:47:25.124Z,-0.30
2022-12-15T18:49:53.516Z,-0.40
2022-12-15T18:52:30.076Z,-0.40
2022-12-15T18:55:01.377Z,-0.30
2022-12-15T18:57:31.492Z,-0.50
2022-12-15T19:00:00.938Z,-0.60
2022-12-15T19:02:29.323Z,-0.60
2022-12-15T19:04:57.700Z,-0.70
2022-12-15T19:07:27.659Z,-0.70
2022-12-15T19:09:56.553Z,-0.70
2022-12-15T19:12:25.273Z,-0.70
2022-12-15T19:14:55.303Z,-0.80
2022-12-15T19:17:42.703Z,-0.90
2022-12-15T19:20:34.905Z,-1.00
2022-12-15T19:23:05.844Z,-1.10
2022-12-15T19:25:35.051Z,-1.30
2022-12-15T19:28:03.358Z,-1.40
2022-12-15T19:30:40.242Z,-1.40
2022-12-15T19:33:09.824Z,-1.40
2022-12-15T19:35:39.240Z,-1.50
2022-12-15T19:38:09.529Z,-1.60
2022-12-15T19:40:38.626Z,-1.60
2022-12-15T19:43:07.311Z,-1.60
2022-12-15T19:45:35.642Z,-1.60
2022-12-15T19:48:04.668Z,-1.50
2022-12-15T19:50:37.352Z,-1.40
2022-12-15T19:53:18.405Z,-1.30
2022-12-15T19:55:46.719Z,-1.20
2022-12-15T19:58:27.536Z,-1.20
2022-12-15T20:00:57.713Z,-1.00
2022-12-15T20:03:27.148Z,-0.90
2022-12-15T20:05:57.430Z,-0.90
2022-12-15T20:08:31.413Z,-0.80
2022-12-15T20:10:59.791Z,-0.70
2022-12-15T20:13:28.219Z,-0.50
2022-12-15T20:15:56.660Z,-0.40
2022-12-15T20:18:24.969Z,-0.30
2022-12-15T20:20:53.825Z,-0.20
2022-12-15T20:23:27.621Z,0.10
2022-12-15T20:25:58.915Z,0.20
2022-12-15T20:28:29.341Z,0.20
2022-12-15T20:30:58.750Z,0.30
2022-12-15T20:33:27.075Z,0.30
2022-12-15T20:35:55.374Z,0.40
2022-12-15T20:38:32.892Z,0.50
2022-12-15T20:41:03.800Z,0.50
2022-12-15T20:43:35.263Z,0.70
2022-12-15T20:46:07.684Z,0.80
2022-12-15T20:48:37.665Z,0.90
2022-12-15T20:51:09.907Z,1.00
2022-12-15T20:53:39.015Z,1.00
2022-12-15T20:56:09.215Z,1.00
2022-12-15T20:58:40.148Z,1.10
2022-12-15T21:01:19.396Z,1.10
2022-12-15T21:03:48.936Z,1.20
2022-12-15T21:06:17.986Z,1.00
2022-12-15T21:08:47.729Z,0.90
2022-12-15T21:11:20.475Z,0.80
2022-12-15T21:13:49.758Z,0.50
2022-12-15T21:16:20.633Z,0.30
2022-12-15T21:19:18.746Z,0.10
2022-12-15T21:21:40.919Z,-0.20
2022-12-15T21:24:16.312Z,-0.60
2022-12-15T21:26:46.887Z,-0.70
2022-12-15T21:29:17.015Z,-0.80
2022-12-15T21:31:46.115Z,-0.70
2022-12-15T21:34:18.227Z,-0.60
2022-12-15T21:36:51.833Z,-0.40
2022-12-15T21:39:25.519Z,-0.20
2022-12-15T21:41:55.276Z,-0.20
2022-12-15T21:44:26.070Z,-0.20
2022-12-15T21:46:54.654Z,-0.20
2022-12-15T21:49:22.265Z,-0.20
2022-12-15T21:51:55.131Z,-0.30
2022-12-15T21:54:30.764Z,-0.30
2022-12-15T21:57:02.822Z,-0.30
2022-12-15T21:59:32.935Z,-0.40
2022-12-15T22:02:02.551Z,-0.50
2022-12-15T22:04:32.959Z,-0.60
2022-12-15T22:07:01.505Z,-0.70
2022-12-15T22:09:29.899Z,-0.80
2022-12-15T22:11:58.604Z,-0.90
2022-12-15T22:14:29.972Z,-1.00
2022-12-15T22:16:59.439Z,-1.10
2022-12-15T22:19:28.007Z,-1.10
2022-12-15T22:21:56.210Z,-1.00
2022-12-15T22:24:24.508Z,-0.80
2022-12-15T22:26:52.896Z,-0.70
2022-12-15T22:29:23.414Z,-0.60
2022-12-15T22:31:53.207Z,-0.60
2022-12-15T22:34:25.627Z,-0.40
2022-12-15T22:36:54.828Z,-0.10
2022-12-15T22:39:24.546Z,-0.10
2022-12-15T22:41:53.698Z,-0.10
2022-12-15T22:44:25.040Z,-0.20
2022-12-15T22:46:57.457Z,-0.20
2022-12-15T22:49:31.363Z,-0.20
2022-12-15T22:51:59.538Z,-0.20
2022-12-15T22:54:29.369Z,-0.20
2022-12-15T22:57:01.952Z,-0.20
2022-12-15T22:59:34.723Z,-0.30
2022-12-15T23:02:05.061Z,-0.40
2022-12-15T23:04:33.751Z,-0.50
2022-12-15T23:07:04.518Z,-0.60
2022-12-15T23:09:32.798Z,-0.70
2022-12-15T23:12:00.083Z,-0.80
2022-12-15T23:14:42.687Z,-0.80
2022-12-15T23:17:12.810Z,-0.90
2022-12-15T23:19:45.009Z,-1.00
2022-12-15T23:22:13.438Z,-1.00
2022-12-15T23:24:41.848Z,-1.10
2022-12-15T23:27:12.138Z,-1.10
2022-12-15T23:29:40.485Z,-1.00
2022-12-15T23:32:08.732Z,-1.10
2022-12-15T23:34:38.301Z,-1.00
2022-12-15T23:37:06.635Z,-1.00
2022-12-15T23:39:34.883Z,-1.00
2022-12-15T23:42:03.090Z,-1.00
2022-12-15T23:44:33.399Z,-1.00
2022-12-15T23:47:01.705Z,-1.00
2022-12-15T23:49:30.022Z,-1.00
2022-12-15T23:51:59.739Z,-1.10
2022-12-15T23:54:28.337Z,-1.10
2022-12-15T23:56:56.622Z,-1.20
2022-12-15T23:59:25.004Z,-1.30
